Time;durP1;ratioP1;P1;durP2;ratioP2;P2;SDS_P1;SDS_P2;PMS_P1;PMS_P2;Temp;Humidity;BMP_temperature;BMP_pressure;BME280_temperature;BME280_humidity;BME280_pressure;Samples;Min_cycle;Max_cycle;Signal;HPM_P1;HPM_P2
2023/03/20 00:00:19;;;;;;;37.42;21.33;;;9.50;99.90;;;;;;5056987;28;20442;-74
2023/03/20 00:02:44;;;;;;;35.22;21.38;;;9.50;99.90;;;;;;5063971;28;20032;-74
2023/03/20 00:05:22;;;;;;;34.45;20.63;;;9.60;99.90;;;;;;5065828;28;20493;-74
2023/03/20 00:07:49;;;;;;;36.45;21.27;;;9.60;99.90;;;;;;5063834;28;20046;-74
2023/03/20 00:10:17;;;;;;;35.03;20.88;;;9.60;99.90;;;;;;5062474;28;20029;-74
2023/03/20 00:12:44;;;;;;;30.55;20.45;;;9.70;99.90;;;;;;5060627;28;20036;-74
2023/03/20 00:15:34;;;;;;;33.30;20.33;;;9.70;99.90;;;;;;5064924;28;20470;-75
2023/03/20 00:18:00;;;;;;;30.73;18.85;;;9.70;99.90;;;;;;5061148;28;20070;-74
2023/03/20 00:20:26;;;;;;;33.97;21.92;;;9.70;99.90;;;;;;5064341;28;20067;-74
2023/03/20 00:22:52;;;;;;;32.00;20.88;;;9.80;99.90;;;;;;5066850;28;20025;-74
2023/03/20 00:25:23;;;;;;;32.45;20.85;;;9.80;99.90;;;;;;5070115;28;20115;-74
2023/03/20 00:27:49;;;;;;;31.88;20.33;;;9.70;99.90;;;;;;5060005;28;20115;-75
2023/03/20 00:30:28;;;;;;;34.75;20.75;;;9.60;99.90;;;;;;5057455;28;20435;-74
2023/03/20 00:32:55;;;;;;;32.30;21.15;;;9.60;99.90;;;;;;5059435;28;20497;-74
2023/03/20 00:35:24;;;;;;;32.70;21.58;;;9.70;99.90;;;;;;5064806;28;20165;-74
2023/03/20 00:37:51;;;;;;;35.28;20.67;;;9.60;99.90;;;;;;5066198;28;20130;-74
2023/03/20 00:40:18;;;;;;;30.00;20.02;;;9.50;99.90;;;;;;5061989;28;20072;-74
2023/03/20 00:42:46;;;;;;;35.85;21.55;;;9.50;99.90;;;;;;5070119;28;20036;-74
2023/03/20 00:45:20;;;;;;;29.48;19.95;;;9.50;99.90;;;;;;5055436;28;20103;-74
2023/03/20 00:47:50;;;;;;;36.58;21.17;;;9.50;99.90;;;;;;5068228;28;20055;-74
2023/03/20 00:50:20;;;;;;;31.38;21.40;;;9.70;99.90;;;;;;5062366;28;20081;-74
2023/03/20 00:52:47;;;;;;;30.85;21.70;;;9.60;99.90;;;;;;5058758;28;20470;-74
2023/03/20 00:55:13;;;;;;;38.55;21.52;;;9.70;99.90;;;;;;5062314;28;20032;-74
2023/03/20 00:57:48;;;;;;;34.40;21.85;;;9.70;99.90;;;;;;5054301;28;20032;-74
2023/03/20 01:00:42;;;;;;;32.10;20.40;;;9.80;99.90;;;;;;5060840;28;20037;-74
2023/03/20 01:03:11;;;;;;;33.58;21.23;;;9.80;99.90;;;;;;5063092;28;20040;-74
2023/03/20 01:05:37;;;;;;;35.80;22.52;;;9.70;99.90;;;;;;5062615;28;20033;-74
2023/03/20 01:08:11;;;;;;;33.35;22.25;;;9.70;99.90;;;;;;5066170;28;20679;-74
2023/03/20 01:10:36;;;;;;;32.40;22.20;;;9.80;99.90;;;;;;5053245;28;20037;-74
2023/03/20 01:13:02;;;;;;;30.55;21.13;;;9.70;99.90;;;;;;5058822;28;20505;-74
2023/03/20 01:15:32;;;;;;;34.65;21.80;;;9.70;99.90;;;;;;5064333;28;20085;-74
2023/03/20 01:17:58;;;;;;;30.58;20.40;;;9.60;99.90;;;;;;5062244;28;20041;-74
2023/03/20 01:20:27;;;;;;;34.03;21.02;;;9.60;99.90;;;;;;5065477;28;20043;-74
2023/03/20 01:22:53;;;;;;;30.02;21.27;;;9.50;99.90;;;;;;5066960;28;20064;-74
2023/03/20 01:25:20;;;;;;;33.97;20.40;;;9.40;99.90;;;;;;5065146;28;20068;-74
2023/03/20 01:27:51;;;;;;;34.72;20.80;;;9.20;99.90;;;;;;5056446;28;20025;-74
2023/03/20 01:30:25;;;;;;;33.13;22.45;;;9.20;99.90;;;;;;5062412;28;20039;-74
2023/03/20 01:32:52;;;;;;;34.92;22.30;;;9.10;99.90;;;;;;5059457;28;20048;-74
2023/03/20 01:35:21;;;;;;;33.85;20.77;;;9.10;99.90;;;;;;5066961;28;20044;-74
2023/03/20 01:37:48;;;;;;;32.88;21.65;;;9.00;99.90;;;;;;5075488;28;20049;-74
2023/03/20 01:40:27;;;;;;;32.70;20.95;;;9.00;99.90;;;;;;5078689;28;20017;-75
2023/03/20 01:42:53;;;;;;;35.05;21.33;;;8.70;99.90;;;;;;5068725;28;20089;-74
2023/03/20 01:45:23;;;;;;;35.53;22.00;;;8.60;99.90;;;;;;5060918;28;20032;-74
2023/03/20 01:47:50;;;;;;;35.88;22.38;;;8.50;99.90;;;;;;5055573;28;20401;-73
2023/03/20 01:50:25;;;;;;;34.35;21.95;;;8.50;99.90;;;;;;5057424;28;20025;-74
2023/03/20 01:53:01;;;;;;;33.67;20.90;;;8.40;99.90;;;;;;5066443;28;20020;-74
2023/03/20 01:55:27;;;;;;;33.92;23.23;;;8.20;99.90;;;;;;5061202;28;20533;-74
2023/03/20 01:57:55;;;;;;;34.42;23.05;;;8.20;99.90;;;;;;5067169;28;20459;-74
2023/03/20 02:00:22;;;;;;;33.70;21.92;;;8.30;99.90;;;;;;5059363;28;20040;-74
2023/03/20 02:02:48;;;;;;;36.10;22.30;;;8.50;99.90;;;;;;5061252;28;20029;-74
2023/03/20 02:05:18;;;;;;;36.10;22.50;;;8.80;99.90;;;;;;5064587;28;20032;-74
2023/03/20 02:07:50;;;;;;;34.00;21.60;;;8.60;99.90;;;;;;5066106;28;20047;-74
2023/03/20 02:10:17;;;;;;;33.95;21.42;;;8.50;99.90;;;;;;5053831;28;20036;-73
2023/03/20 02:12:44;;;;;;;32.70;21.00;;;8.20;99.90;;;;;;5062530;28;20108;-74
2023/03/20 02:15:13;;;;;;;38.08;21.70;;;8.10;99.90;;;;;;5066008;28;20021;-74
2023/03/20 02:17:39;;;;;;;30.10;20.85;;;8.10;99.90;;;;;;5067548;28;20119;-74
2023/03/20 02:20:10;;;;;;;38.25;23.30;;;8.10;99.90;;;;;;5063741;28;20546;-74
2023/03/20 02:23:19;;;;;;;33.90;23.42;;;8.10;99.90;;;;;;5060168;28;20025;-74
2023/03/20 02:26:21;;;;;;;38.13;22.45;;;8.10;99.90;;;;;;5056173;28;20032;-74
2023/03/20 02:29:15;;;;;;;33.03;21.38;;;8.20;99.90;;;;;;5063122;28;20115;-74
2023/03/20 02:31:47;;;;;;;40.30;23.83;;;8.10;99.90;;;;;;5059456;28;20382;-74
2023/03/20 02:34:34;;;;;;;35.67;22.42;;;8.10;99.90;;;;;;5057453;28;20452;-74
2023/03/20 02:37:41;;;;;;;37.88;23.05;;;8.10;99.90;;;;;;5065505;28;20105;-74
2023/03/20 02:40:29;;;;;;;33.80;22.15;;;8.10;99.90;;;;;;5061825;28;20035;-74
2023/03/20 02:43:09;;;;;;;35.78;23.77;;;8.10;99.90;;;;;;5059173;28;20466;-74
2023/03/20 02:46:04;;;;;;;37.28;24.35;;;8.20;99.90;;;;;;5050229;28;20033;-74
2023/03/20 02:48:30;;;;;;;37.10;23.63;;;8.20;99.90;;;;;;5062304;28;20759;-74
2023/03/20 02:51:26;;;;;;;41.72;24.13;;;8.10;99.90;;;;;;5057104;28;20024;-74
2023/03/20 02:54:33;;;;;;;36.03;23.38;;;8.00;99.90;;;;;;5066641;28;20041;-74
2023/03/20 02:57:03;;;;;;;35.80;21.10;;;8.00;99.90;;;;;;5041309;28;20036;-73
2023/03/20 02:59:40;;;;;;;37.88;24.77;;;8.00;99.90;;;;;;5064082;28;20067;-73
2023/03/20 03:02:15;;;;;;;33.78;21.83;;;7.90;99.90;;;;;;5060107;28;20063;-73
2023/03/20 03:04:49;;;;;;;39.38;22.95;;;7.90;99.90;;;;;;5064411;28;20028;-73
2023/03/20 03:07:18;;;;;;;38.07;23.90;;;7.90;99.90;;;;;;5063695;28;20111;-73
2023/03/20 03:09:59;;;;;;;37.92;23.70;;;7.90;99.90;;;;;;5060178;28;20286;-73
2023/03/20 03:12:34;;;;;;;36.88;22.88;;;7.90;99.90;;;;;;5056756;28;20033;-73
2023/03/20 03:15:02;;;;;;;37.42;23.98;;;7.80;99.90;;;;;;5060674;28;20074;-73
2023/03/20 03:17:33;;;;;;;34.60;23.95;;;7.80;99.90;;;;;;5060441;28;20475;-73
2023/03/20 03:20:04;;;;;;;35.63;23.38;;;7.80;99.90;;;;;;5055425;28;20578;-73
2023/03/20 03:22:33;;;;;;;33.35;23.35;;;7.80;99.90;;;;;;5066720;28;20367;-73
2023/03/20 03:24:58;;;;;;;38.33;23.92;;;7.80;99.90;;;;;;5068885;28;20119;-73
2023/03/20 03:27:31;;;;;;;36.70;24.25;;;7.80;99.90;;;;;;5060296;28;20104;-74
2023/03/20 03:30:06;;;;;;;39.22;23.45;;;7.70;99.90;;;;;;5063686;28;20091;-73
2023/03/20 03:32:35;;;;;;;35.13;22.80;;;7.60;99.90;;;;;;5059704;28;20036;-73
2023/03/20 03:35:04;;;;;;;34.85;22.83;;;7.60;99.90;;;;;;5061941;28;20045;-73
2023/03/20 03:37:33;;;;;;;37.92;23.13;;;7.50;99.90;;;;;;5069571;28;20759;-73
2023/03/20 03:40:19;;;;;;;35.30;24.17;;;7.60;99.90;;;;;;5065944;28;20980;-73
2023/03/20 03:42:54;;;;;;;37.10;23.63;;;7.50;99.90;;;;;;5066095;28;20112;-73
2023/03/20 03:45:43;;;;;;;39.50;23.83;;;7.30;99.90;;;;;;5060863;28;20581;-73
2023/03/20 03:48:18;;;;;;;37.25;22.80;;;7.20;99.90;;;;;;5064995;28;20074;-73
2023/03/20 03:50:57;;;;;;;39.05;23.48;;;7.10;99.90;;;;;;5062727;28;20032;-73
2023/03/20 03:53:33;;;;;;;38.33;23.73;;;7.10;99.90;;;;;;5066274;28;20032;-73
2023/03/20 03:56:03;;;;;;;36.65;22.75;;;7.20;99.90;;;;;;5059976;28;20604;-73
2023/03/20 03:58:34;;;;;;;40.17;25.27;;;7.40;99.90;;;;;;5065028;28;20037;-73
2023/03/20 04:01:03;;;;;;;44.25;24.80;;;7.40;99.90;;;;;;5064160;28;20498;-74
2023/03/20 04:03:32;;;;;;;35.80;22.85;;;7.50;99.90;;;;;;5062934;28;20032;-74
2023/03/20 04:06:00;;;;;;;41.83;23.08;;;7.40;99.90;;;;;;5060715;28;20062;-74
2023/03/20 04:08:26;;;;;;;38.92;24.63;;;7.50;99.90;;;;;;5056806;28;20028;-74
2023/03/20 04:10:52;;;;;;;41.22;22.83;;;7.60;99.90;;;;;;5052272;28;20036;-74
2023/03/20 04:13:17;;;;;;;34.08;22.20;;;7.60;99.90;;;;;;5061291;28;20086;-74
2023/03/20 04:15:43;;;;;;;42.60;23.60;;;7.60;99.90;;;;;;5060559;28;20596;-75
2023/03/20 04:18:15;;;;;;;38.83;23.83;;;7.70;99.90;;;;;;5058221;28;20169;-74
2023/03/20 04:20:42;;;;;;;40.35;24.33;;;7.60;99.90;;;;;;5052348;28;20692;-74
2023/03/20 04:23:08;;;;;;;36.03;23.15;;;7.70;99.90;;;;;;5054649;28;20651;-74
2023/03/20 04:25:33;;;;;;;41.67;24.67;;;7.60;99.90;;;;;;5061184;28;20043;-74
2023/03/20 04:27:59;;;;;;;38.00;23.50;;;7.60;99.90;;;;;;5052435;28;20017;-75
2023/03/20 04:30:25;;;;;;;36.40;24.30;;;7.70;99.90;;;;;;5057020;28;20021;-74
2023/03/20 04:32:50;;;;;;;36.97;23.70;;;7.60;99.90;;;;;;5060196;28;20085;-75
2023/03/20 04:35:16;;;;;;;39.33;25.20;;;7.60;99.90;;;;;;5062995;28;20154;-74
2023/03/20 04:37:42;;;;;;;36.28;24.55;;;7.60;99.90;;;;;;5051758;28;20053;-74
2023/03/20 04:40:08;;;;;;;37.72;23.30;;;7.60;99.90;;;;;;5057932;28;20041;-74
2023/03/20 04:42:34;;;;;;;39.25;23.35;;;7.50;99.90;;;;;;5062935;28;20090;-74
2023/03/20 04:45:00;;;;;;;37.65;25.77;;;7.50;99.90;;;;;;5055221;28;20472;-74
2023/03/20 04:47:25;;;;;;;39.92;25.10;;;7.50;99.90;;;;;;5054485;28;20041;-74
2023/03/20 04:49:51;;;;;;;41.00;25.08;;;7.50;99.90;;;;;;5053073;28;20295;-74
2023/03/20 04:52:17;;;;;;;43.55;26.67;;;7.60;99.90;;;;;;5052044;28;20041;-74
2023/03/20 04:54:42;;;;;;;38.70;24.98;;;7.60;99.90;;;;;;5069247;28;20105;-74
2023/03/20 04:57:08;;;;;;;39.55;24.83;;;7.70;99.90;;;;;;5061883;28;20092;-75
2023/03/20 04:59:34;;;;;;;39.67;24.92;;;7.70;99.90;;;;;;5056076;28;20040;-74
2023/03/20 05:01:59;;;;;;;42.83;25.70;;;7.70;99.90;;;;;;5065045;28;20048;-74
2023/03/20 05:04:25;;;;;;;44.33;25.52;;;7.70;99.90;;;;;;5055216;28;20080;-74
2023/03/20 05:06:51;;;;;;;36.85;25.00;;;7.70;99.90;;;;;;5056774;28;20032;-74
2023/03/20 05:09:16;;;;;;;35.67;24.23;;;7.70;99.90;;;;;;5057945;28;20031;-74
2023/03/20 05:11:42;;;;;;;36.72;24.45;;;7.60;99.90;;;;;;5057956;28;20036;-74
2023/03/20 05:14:08;;;;;;;41.92;26.27;;;7.70;99.90;;;;;;5059856;28;20070;-74
2023/03/20 05:16:34;;;;;;;45.20;26.85;;;7.70;99.90;;;;;;5055698;28;20025;-74
2023/03/20 05:19:00;;;;;;;38.72;25.00;;;7.60;99.90;;;;;;5061699;28;20127;-75
2023/03/20 05:21:26;;;;;;;40.40;26.75;;;7.60;99.90;;;;;;5054128;28;20923;-74
2023/03/20 05:23:51;;;;;;;38.70;24.83;;;7.50;99.90;;;;;;5061388;28;20029;-74
2023/03/20 05:26:17;;;;;;;37.72;23.88;;;7.50;99.90;;;;;;5056015;28;20580;-75
2023/03/20 05:28:42;;;;;;;42.63;26.40;;;7.50;99.90;;;;;;5050197;28;20703;-74
2023/03/20 05:31:08;;;;;;;35.92;23.60;;;7.50;99.90;;;;;;5049445;28;20559;-74
2023/03/20 05:33:34;;;;;;;41.55;26.17;;;7.60;99.90;;;;;;5056073;28;20572;-74
2023/03/20 05:36:00;;;;;;;36.40;25.17;;;7.80;99.90;;;;;;5051595;28;20036;-74
2023/03/20 05:38:26;;;;;;;41.90;26.00;;;7.80;99.90;;;;;;5055822;28;20089;-74
2023/03/20 05:40:59;;;;;;;41.72;25.83;;;7.90;99.90;;;;;;5052669;28;20652;-74
2023/03/20 05:43:27;;;;;;;38.10;24.58;;;8.00;99.90;;;;;;5054684;28;20051;-74
2023/03/20 05:45:52;;;;;;;43.67;26.10;;;8.00;99.90;;;;;;5053957;28;20037;-74
2023/03/20 05:48:18;;;;;;;39.42;25.38;;;7.90;99.90;;;;;;5055274;28;20044;-75
2023/03/20 05:50:44;;;;;;;38.35;25.92;;;7.80;99.90;;;;;;5052130;28;20024;-74
2023/03/20 05:53:09;;;;;;;39.40;25.65;;;7.90;99.90;;;;;;5057509;28;20039;-74
2023/03/20 05:55:35;;;;;;;43.63;26.58;;;7.80;99.90;;;;;;5058194;28;20127;-74
2023/03/20 05:58:01;;;;;;;43.22;26.40;;;7.90;99.90;;;;;;5057240;28;20036;-74
2023/03/20 06:00:26;;;;;;;37.72;25.85;;;7.80;99.90;;;;;;5051722;28;20422;-74
2023/03/20 06:02:52;;;;;;;40.85;25.67;;;7.90;99.90;;;;;;5054210;28;20036;-74
2023/03/20 06:05:18;;;;;;;37.72;25.65;;;8.00;99.90;;;;;;5062299;28;20058;-75
2023/03/20 06:07:44;;;;;;;37.67;24.13;;;8.00;99.90;;;;;;5053993;28;20029;-75
2023/03/20 06:10:10;;;;;;;40.20;26.30;;;8.00;99.90;;;;;;5051045;28;20024;-74
2023/03/20 06:12:35;;;;;;;34.13;23.50;;;8.10;99.90;;;;;;5054557;28;20036;-74
2023/03/20 06:15:01;;;;;;;37.03;24.05;;;8.10;99.90;;;;;;5060143;28;20355;-74
2023/03/20 06:17:27;;;;;;;42.47;24.33;;;8.20;99.90;;;;;;5056722;28;21827;-73
2023/03/20 06:19:53;;;;;;;37.15;25.20;;;8.30;99.90;;;;;;5052629;28;20419;-73
2023/03/20 06:22:19;;;;;;;39.25;24.63;;;8.30;99.90;;;;;;5055343;28;20032;-72
2023/03/20 06:24:45;;;;;;;40.45;24.85;;;8.30;99.90;;;;;;5053023;28;20031;-73
2023/03/20 06:27:10;;;;;;;31.67;23.65;;;8.20;99.90;;;;;;5054080;28;20024;-74
2023/03/20 06:29:36;;;;;;;37.72;26.25;;;8.10;99.90;;;;;;5053227;28;20037;-73
2023/03/20 06:32:02;;;;;;;38.10;25.48;;;8.10;99.90;;;;;;5059455;28;20467;-74
2023/03/20 06:34:29;;;;;;;39.70;26.65;;;8.00;99.90;;;;;;5057815;28;20185;-72
2023/03/20 06:36:55;;;;;;;38.53;25.58;;;8.00;99.90;;;;;;5058088;28;20061;-74
2023/03/20 06:39:21;;;;;;;36.83;24.42;;;7.90;99.90;;;;;;5055685;28;20029;-73
2023/03/20 06:41:46;;;;;;;41.22;26.85;;;7.90;99.90;;;;;;5054090;28;20032;-73
2023/03/20 06:44:12;;;;;;;38.78;26.52;;;7.80;99.90;;;;;;5050128;28;20090;-73
2023/03/20 06:46:37;;;;;;;40.58;26.80;;;7.90;99.90;;;;;;5051314;28;20028;-73
2023/03/20 06:49:03;;;;;;;39.58;26.13;;;7.80;99.90;;;;;;5049599;28;20033;-73
2023/03/20 06:51:29;;;;;;;40.88;25.85;;;7.90;99.90;;;;;;5052349;28;20033;-73
2023/03/20 06:53:55;;;;;;;38.83;25.80;;;7.90;99.90;;;;;;5054173;28;20033;-73
2023/03/20 06:56:21;;;;;;;36.25;24.02;;;8.00;99.90;;;;;;5056599;28;20063;-73
2023/03/20 06:58:46;;;;;;;42.28;27.05;;;8.00;99.90;;;;;;5051974;28;20033;-73
2023/03/20 07:01:15;;;;;;;39.38;25.63;;;8.10;99.90;;;;;;5053206;28;20052;-73
2023/03/20 07:03:41;;;;;;;40.00;25.17;;;8.10;99.90;;;;;;5058226;28;20474;-73
2023/03/20 07:06:08;;;;;;;35.15;24.17;;;8.20;99.90;;;;;;5053352;28;20060;-74
2023/03/20 07:08:33;;;;;;;42.90;25.85;;;8.20;99.90;;;;;;5057728;28;20048;-74
2023/03/20 07:11:00;;;;;;;40.78;26.77;;;8.30;99.90;;;;;;5050572;28;20272;-73
2023/03/20 07:13:27;;;;;;;40.25;26.20;;;8.20;99.90;;;;;;5055950;28;20556;-74
2023/03/20 07:15:53;;;;;;;37.80;24.33;;;8.40;99.90;;;;;;5053951;28;20106;-73
2023/03/20 07:18:19;;;;;;;46.00;28.02;;;8.50;99.90;;;;;;5055058;28;20052;-73
2023/03/20 07:20:45;;;;;;;48.20;26.73;;;8.60;99.90;;;;;;5060276;28;20071;-73
2023/03/20 07:23:11;;;;;;;42.47;27.27;;;8.60;99.90;;;;;;5050999;28;20446;-74
2023/03/20 07:25:37;;;;;;;42.00;28.08;;;8.60;99.90;;;;;;5052875;28;20081;-73
2023/03/20 07:28:04;;;;;;;41.58;26.10;;;8.70;99.90;;;;;;5059678;28;20031;-74
2023/03/20 07:30:31;;;;;;;40.67;26.80;;;8.80;99.90;;;;;;5070243;28;20250;-74
2023/03/20 07:32:57;;;;;;;43.38;27.80;;;8.80;99.90;;;;;;5068017;28;20600;-74
2023/03/20 07:35:23;;;;;;;41.88;26.52;;;8.90;99.90;;;;;;5055919;28;20029;-74
2023/03/20 07:37:49;;;;;;;44.55;27.38;;;8.90;99.90;;;;;;5051666;28;20141;-74
2023/03/20 07:40:15;;;;;;;41.55;26.70;;;9.00;99.90;;;;;;5061933;28;20025;-73
2023/03/20 07:42:40;;;;;;;39.72;25.42;;;9.00;99.90;;;;;;5058775;28;20405;-73
2023/03/20 07:45:08;;;;;;;40.20;25.63;;;9.10;99.90;;;;;;5050925;28;20035;-73
2023/03/20 07:47:34;;;;;;;39.88;26.17;;;9.20;99.90;;;;;;5056529;28;20513;-74
2023/03/20 07:49:59;;;;;;;40.13;26.10;;;9.30;99.90;;;;;;5062837;28;20048;-74
2023/03/20 07:52:25;;;;;;;44.15;28.92;;;9.40;99.90;;;;;;5062117;28;20071;-74
2023/03/20 07:54:51;;;;;;;38.78;26.02;;;9.50;99.90;;;;;;5062993;28;20040;-74
2023/03/20 07:57:17;;;;;;;45.00;28.65;;;9.40;99.90;;;;;;5056198;28;20025;-73
2023/03/20 07:59:43;;;;;;;42.80;28.13;;;9.20;99.90;;;;;;5052607;28;20532;-73
2023/03/20 08:02:14;;;;;;;43.40;28.70;;;9.10;99.90;;;;;;5058175;28;20028;-73
2023/03/20 08:04:40;;;;;;;46.97;28.75;;;9.10;99.90;;;;;;5059406;28;20020;-74
2023/03/20 08:07:06;;;;;;;42.88;28.50;;;9.20;99.90;;;;;;5063092;28;20347;-73
2023/03/20 08:09:32;;;;;;;44.53;29.10;;;9.10;99.90;;;;;;5066127;28;20028;-74
2023/03/20 08:11:57;;;;;;;40.20;27.35;;;9.20;99.90;;;;;;5067692;28;20036;-74
2023/03/20 08:14:23;;;;;;;44.47;29.50;;;9.10;99.90;;;;;;5066038;28;20040;-74
2023/03/20 08:16:49;;;;;;;45.92;27.13;;;9.20;99.90;;;;;;5064247;28;20025;-72
2023/03/20 08:19:14;;;;;;;42.95;27.50;;;9.40;99.90;;;;;;5063872;28;20036;-73
2023/03/20 08:21:40;;;;;;;44.65;27.92;;;9.50;99.90;;;;;;5057997;28;20025;-73
2023/03/20 08:24:07;;;;;;;40.88;27.45;;;9.50;99.90;;;;;;5062021;28;20037;-73
2023/03/20 08:26:33;;;;;;;41.53;28.35;;;9.50;99.90;;;;;;5059815;28;20670;-73
2023/03/20 08:28:59;;;;;;;51.80;33.42;;;9.80;99.90;;;;;;5060442;28;20025;-73
2023/03/20 08:31:24;;;;;;;49.90;34.92;;;10.00;99.90;;;;;;5064765;28;20036;-73
2023/03/20 08:33:50;;;;;;;39.13;26.38;;;9.90;99.90;;;;;;5056668;28;20451;-73
2023/03/20 08:36:19;;;;;;;41.63;26.38;;;9.90;99.90;;;;;;5059365;28;20353;-73
2023/03/20 08:38:47;;;;;;;40.92;26.27;;;9.90;99.90;;;;;;5063552;28;20084;-73
2023/03/20 08:41:13;;;;;;;37.88;26.35;;;9.90;99.90;;;;;;5062059;28;20020;-73
2023/03/20 08:43:39;;;;;;;41.28;27.67;;;9.90;99.90;;;;;;5064092;28;20032;-72
2023/03/20 08:46:05;;;;;;;43.35;26.17;;;10.20;99.90;;;;;;5065430;28;20017;-73
2023/03/20 08:48:31;;;;;;;38.30;26.30;;;10.20;99.90;;;;;;5064584;28;20021;-72
2023/03/20 08:50:56;;;;;;;43.40;26.75;;;10.30;99.90;;;;;;5059011;28;20089;-73
2023/03/20 08:53:22;;;;;;;36.58;24.42;;;10.40;99.90;;;;;;5053277;28;20109;-73
2023/03/20 08:55:48;;;;;;;39.03;25.60;;;10.50;99.90;;;;;;5066468;28;20031;-73
2023/03/20 08:58:15;;;;;;;36.45;25.08;;;10.40;99.90;;;;;;5064936;28;20044;-73
2023/03/20 09:00:41;;;;;;;42.38;27.40;;;10.50;99.90;;;;;;5058997;28;20116;-72
2023/03/20 09:03:09;;;;;;;35.58;25.38;;;10.70;99.90;;;;;;5066075;28;20748;-73
2023/03/20 09:05:36;;;;;;;37.92;27.13;;;10.60;99.90;;;;;;5049530;28;20108;-73
2023/03/20 09:08:01;;;;;;;40.30;24.63;;;10.90;99.90;;;;;;5064473;28;20032;-73
2023/03/20 09:10:27;;;;;;;41.60;26.08;;;11.30;99.90;;;;;;5055968;28;20036;-73
2023/03/20 09:12:53;;;;;;;37.55;25.75;;;11.50;99.90;;;;;;5058343;28;20471;-73
2023/03/20 09:15:18;;;;;;;40.60;26.25;;;11.40;99.90;;;;;;5063028;28;20067;-73
2023/03/20 09:17:44;;;;;;;39.30;25.48;;;11.30;99.90;;;;;;5058190;28;20577;-73
2023/03/20 09:20:10;;;;;;;39.47;27.00;;;11.20;99.90;;;;;;5065435;28;20527;-73
2023/03/20 09:22:36;;;;;;;38.75;26.63;;;11.20;99.90;;;;;;5064860;28;20033;-73
2023/03/20 09:25:02;;;;;;;41.85;27.65;;;11.10;99.90;;;;;;5064780;28;20032;-72
2023/03/20 09:27:28;;;;;;;36.20;26.88;;;11.30;99.90;;;;;;5052154;28;20551;-73
2023/03/20 09:29:53;;;;;;;41.67;27.17;;;11.20;99.90;;;;;;5062414;28;20033;-73
2023/03/20 09:32:19;;;;;;;42.75;26.92;;;11.40;99.90;;;;;;5051380;28;20075;-73
2023/03/20 09:34:44;;;;;;;41.63;25.77;;;11.40;99.90;;;;;;5059569;28;20028;-73
2023/03/20 09:37:10;;;;;;;36.88;27.17;;;11.30;99.90;;;;;;5053386;28;20053;-73
2023/03/20 09:39:36;;;;;;;37.92;26.98;;;11.30;99.90;;;;;;5063400;28;20275;-73
2023/03/20 09:42:20;;;;;;;37.13;26.05;;;11.60;99.90;;;;;;5051823;28;20028;-73
2023/03/20 09:45:12;;;;;;;37.55;26.42;;;11.80;99.90;;;;;;5056928;28;20090;-73
2023/03/20 09:48:05;;;;;;;37.35;26.83;;;11.70;99.90;;;;;;5035367;28;20029;-73
2023/03/20 09:50:45;;;;;;;38.13;24.88;;;12.10;99.90;;;;;;5061792;28;20059;-73
2023/03/20 09:53:16;;;;;;;37.33;24.88;;;12.40;99.90;;;;;;5064441;28;20654;-73
2023/03/20 09:55:43;;;;;;;34.70;24.10;;;12.30;99.50;;;;;;5064163;28;20401;-73
2023/03/20 09:58:26;;;;;;;37.80;25.10;;;12.50;99.50;;;;;;5053847;28;20040;-73
2023/03/20 10:00:57;;;;;;;40.97;25.55;;;12.20;99.80;;;;;;5059953;28;20386;-73
2023/03/20 10:03:35;;;;;;;37.65;25.15;;;12.20;99.30;;;;;;5064830;28;20061;-73
2023/03/20 10:06:06;;;;;;;36.38;24.15;;;12.30;99.50;;;;;;5053368;28;20021;-73
2023/03/20 10:08:35;;;;;;;35.03;24.67;;;12.50;99.50;;;;;;5063496;28;20511;-73
2023/03/20 10:11:26;;;;;;;35.88;24.85;;;12.40;99.00;;;;;;5064820;28;20466;-73
2023/03/20 10:13:58;;;;;;;34.22;24.17;;;12.50;99.10;;;;;;5057327;28;20436;-73
2023/03/20 10:16:56;;;;;;;35.45;25.45;;;12.50;99.50;;;;;;5057291;28;20583;-73
2023/03/20 10:19:27;;;;;;;35.97;24.88;;;12.80;99.50;;;;;;5054787;28;20037;-73
2023/03/20 10:22:21;;;;;;;37.28;25.92;;;13.20;98.40;;;;;;5053686;28;20032;-72
2023/03/20 10:25:11;;;;;;;39.55;25.50;;;13.30;98.50;;;;;;5051184;28;20063;-73
2023/03/20 10:27:47;;;;;;;37.75;25.55;;;13.10;98.10;;;;;;5048165;28;20060;-73
2023/03/20 10:30:32;;;;;;;32.63;23.67;;;13.10;98.50;;;;;;5061075;28;20487;-73
2023/03/20 10:33:09;;;;;;;;;;;13.60;98.20;;;;;;5060349;28;20034;-73
2023/03/20 10:35:49;;;;;;;36.35;24.40;;;13.40;98.00;;;;;;5054929;28;20877;-73
2023/03/20 10:38:26;;;;;;;37.28;23.05;;;13.50;97.80;;;;;;5054935;28;20047;-73
2023/03/20 10:40:56;;;;;;;34.22;23.90;;;13.80;98.20;;;;;;5060160;28;20394;-73
2023/03/20 10:43:33;;;;;;;38.08;24.02;;;13.90;97.70;;;;;;5060925;28;20520;-73
2023/03/20 10:46:09;;;;;;;34.88;24.95;;;13.80;97.80;;;;;;5060783;28;20419;-73
2023/03/20 10:49:10;;;;;;;37.13;23.00;;;13.80;97.80;;;;;;5065803;28;20032;-73
2023/03/20 10:51:45;;;;;;;33.42;22.42;;;13.90;96.80;;;;;;5075961;28;20059;-73
2023/03/20 10:54:39;;;;;;;34.38;23.80;;;14.30;96.90;;;;;;5056162;28;20039;-73
2023/03/20 10:57:12;;;;;;;33.90;25.95;;;14.50;96.30;;;;;;5063881;28;20032;-73
2023/03/20 11:00:00;;;;;;;34.03;23.45;;;14.40;96.30;;;;;;5060058;28;20038;-73
2023/03/20 11:02:30;;;;;;;85.88;61.05;;;14.60;97.10;;;;;;5052933;28;20043;-73
2023/03/20 11:05:00;;;;;;;35.90;27.05;;;14.60;95.90;;;;;;5055689;28;20102;-73
2023/03/20 11:07:34;;;;;;;32.45;25.05;;;14.50;96.10;;;;;;5061861;28;20070;-73
2023/03/20 11:10:03;;;;;;;36.45;24.88;;;14.70;96.20;;;;;;5059953;28;20558;-73
2023/03/20 11:12:32;;;;;;;33.25;22.33;;;15.00;95.90;;;;;;5058643;28;20598;-73
2023/03/20 11:15:02;;;;;;;32.00;22.05;;;15.30;95.10;;;;;;5059886;28;20033;-73
2023/03/20 11:17:28;;;;;;;34.00;23.02;;;15.50;94.90;;;;;;5055892;28;20043;-73
2023/03/20 11:20:03;;;;;;;30.20;21.60;;;15.30;95.10;;;;;;5058224;28;20119;-73
2023/03/20 11:22:29;;;;;;;30.35;21.73;;;15.40;94.60;;;;;;5060227;28;20063;-73
2023/03/20 11:25:00;;;;;;;29.20;20.83;;;15.50;94.50;;;;;;5051577;28;20522;-73
2023/03/20 11:27:28;;;;;;;29.02;21.15;;;15.60;94.90;;;;;;5047634;28;20041;-73
2023/03/20 11:29:55;;;;;;;37.55;21.23;;;15.50;94.80;;;;;;5058228;28;20118;-74
2023/03/20 11:32:31;;;;;;;30.02;22.25;;;15.80;94.60;;;;;;5052885;28;20102;-73
2023/03/20 11:35:09;;;;;;;29.90;20.85;;;15.80;94.20;;;;;;5060095;28;20029;-73
2023/03/20 11:37:42;;;;;;;39.28;23.75;;;15.60;94.90;;;;;;5062128;28;20055;-73
2023/03/20 11:40:30;;;;;;;48.95;33.65;;;15.50;94.40;;;;;;5060117;28;20033;-73
2023/03/20 11:43:08;;;;;;;53.00;35.50;;;15.70;94.80;;;;;;5054542;28;20442;-73
2023/03/20 11:45:39;;;;;;;51.72;32.05;;;15.70;94.60;;;;;;5062261;28;20099;-73
2023/03/20 11:48:13;;;;;;;35.22;24.05;;;15.80;94.60;;;;;;5062271;28;20495;-73
2023/03/20 11:50:46;;;;;;;33.65;23.52;;;15.90;94.60;;;;;;5057067;28;20036;-73
2023/03/20 11:53:23;;;;;;;69.85;44.50;;;16.10;94.70;;;;;;5061756;28;20035;-73
2023/03/20 11:56:07;;;;;;;35.70;21.73;;;16.00;94.30;;;;;;5064552;28;20034;-74
2023/03/20 11:58:35;;;;;;;25.83;18.90;;;16.50;93.90;;;;;;5065239;28;20032;-73
2023/03/20 12:01:02;;;;;;;23.58;17.95;;;16.70;93.30;;;;;;5066561;28;20035;-73
2023/03/20 12:03:54;;;;;;;25.35;17.85;;;16.70;93.10;;;;;;5059223;28;20391;-73
2023/03/20 12:06:23;;;;;;;46.63;20.55;;;17.00;92.70;;;;;;5056055;28;20029;-73
2023/03/20 12:09:02;;;;;;;24.73;18.15;;;16.60;92.90;;;;;;5066199;28;20107;-73
2023/03/20 12:11:58;;;;;;;27.63;19.58;;;16.40;92.60;;;;;;5059001;28;20037;-73
2023/03/20 12:14:27;;;;;;;24.17;16.65;;;16.30;92.90;;;;;;5063738;28;20426;-71
2023/03/20 12:17:13;;;;;;;20.42;15.27;;;16.50;92.00;;;;;;5044894;28;20041;-72
2023/03/20 12:19:40;;;;;;;22.38;15.63;;;16.50;91.90;;;;;;5060668;28;20043;-72
2023/03/20 12:22:20;;;;;;;27.42;17.88;;;16.70;92.30;;;;;;5058517;28;20039;-73
2023/03/20 12:24:57;;;;;;;26.55;18.25;;;16.60;91.90;;;;;;5058855;28;20116;-73
2023/03/20 12:27:35;;;;;;;27.73;18.50;;;16.60;92.20;;;;;;5059523;28;20103;-73
2023/03/20 12:30:11;;;;;;;23.65;17.70;;;16.50;92.60;;;;;;5059675;28;20033;-73
2023/03/20 12:33:12;;;;;;;23.98;18.25;;;16.80;92.30;;;;;;5052125;28;20021;-72
2023/03/20 12:35:45;;;;;;;22.58;15.27;;;17.00;92.90;;;;;;5040953;28;20408;-72
2023/03/20 12:38:28;;;;;;;24.45;17.25;;;17.30;91.80;;;;;;5056349;28;20175;-72
2023/03/20 12:41:12;;;;;;;25.23;16.67;;;17.20;91.60;;;;;;5060213;28;20020;-72
2023/03/20 12:43:57;;;;;;;22.27;15.85;;;17.60;92.20;;;;;;5063881;28;20111;-72
2023/03/20 12:46:32;;;;;;;20.00;14.95;;;17.50;91.60;;;;;;5050583;28;20043;-72
2023/03/20 12:49:06;;;;;;;20.58;13.82;;;17.60;91.40;;;;;;5055476;28;20093;-74
2023/03/20 12:51:55;;;;;;;20.38;14.40;;;17.70;91.10;;;;;;5059987;28;20612;-73